sensor_id;sensor_type;location;lat;lon;timestamp;pressure;altitude;pressure_sealevel;temperature;humidity
66164;BME280;52962;51.088;3.096;2022-09-09T00:01:23;100376.84;;;17.79;100.00
66164;BME280;52962;51.088;3.096;2022-09-09T00:04:00;100365.41;;;17.74;100.00
66164;BME280;52962;51.088;3.096;2022-09-09T00:06:34;100370.78;;;17.71;100.00
66164;BME280;52962;51.088;3.096;2022-09-09T00:09:09;100369.13;;;17.63;100.00
66164;BME280;52962;51.088;3.096;2022-09-09T00:11:41;100364.69;;;17.62;100.00
66164;BME280;52962;51.088;3.096;2022-09-09T00:14:16;100370.94;;;17.61;100.00
66164;BME280;52962;51.088;3.096;2022-09-09T00:16:51;100369.22;;;17.57;100.00
66164;BME280;52962;51.088;3.096;2022-09-09T00:19:26;100376.19;;;17.64;100.00
66164;BME280;52962;51.088;3.096;2022-09-09T00:22:06;100361.19;;;17.60;100.00
66164;BME280;52962;51.088;3.096;2022-09-09T00:24:44;100359.41;;;17.59;100.00
66164;BME280;52962;51.088;3.096;2022-09-09T00:27:19;100361.19;;;17.59;100.00
66164;BME280;52962;51.088;3.096;2022-09-09T00:29:53;100349.63;;;17.61;100.00
66164;BME280;52962;51.088;3.096;2022-09-09T00:32:28;100353.16;;;17.63;100.00
66164;BME280;52962;51.088;3.096;2022-09-09T00:34:59;100347.00;;;17.58;100.00
66164;BME280;52962;51.088;3.096;2022-09-09T00:37:31;100347.88;;;17.60;100.00
66164;BME280;52962;51.088;3.096;2022-09-09T00:40:06;100340.78;;;17.59;100.00
66164;BME280;52962;51.088;3.096;2022-09-09T00:42:41;100333.59;;;17.64;100.00
66164;BME280;52962;51.088;3.096;2022-09-09T00:45:22;100330.06;;;17.66;100.00
66164;BME280;52962;51.088;3.096;2022-09-09T00:47:56;100333.59;;;17.64;100.00
66164;BME280;52962;51.088;3.096;2022-09-09T00:50:36;100329.25;;;17.59;100.00
66164;BME280;52962;51.088;3.096;2022-09-09T00:53:16;100329.28;;;17.57;100.00
66164;BME280;52962;51.088;3.096;2022-09-09T00:55:50;100321.19;;;17.67;100.00
66164;BME280;52962;51.088;3.096;2022-09-09T00:58:21;100316.75;;;17.64;100.00
66164;BME280;52962;51.088;3.096;2022-09-09T01:00:53;100313.28;;;17.59;100.00
66164;BME280;52962;51.088;3.096;2022-09-09T01:03:30;100303.56;;;17.56;100.00
66164;BME280;52962;51.088;3.096;2022-09-09T01:06:10;100305.53;;;17.45;100.00
66164;BME280;52962;51.088;3.096;2022-09-09T01:09:04;100310.84;;;17.45;100.00
66164;BME280;52962;51.088;3.096;2022-09-09T01:11:43;100300.28;;;17.39;100.00
66164;BME280;52962;51.088;3.096;2022-09-09T01:14:29;100294.13;;;17.37;100.00
66164;BME280;52962;51.088;3.096;2022-09-09T01:17:03;100297.69;;;17.36;100.00
66164;BME280;52962;51.088;3.096;2022-09-09T01:19:40;100295.03;;;17.36;100.00
66164;BME280;52962;51.088;3.096;2022-09-09T01:22:22;100282.63;;;17.35;100.00
66164;BME280;52962;51.088;3.096;2022-09-09T01:25:13;100297.72;;;17.33;100.00
66164;BME280;52962;51.088;3.096;2022-09-09T01:27:48;100294.03;;;17.43;100.00
66164;BME280;52962;51.088;3.096;2022-09-09T01:30:18;100290.47;;;17.43;100.00
66164;BME280;52962;51.088;3.096;2022-09-09T01:32:48;100294.09;;;17.39;100.00
66164;BME280;52962;51.088;3.096;2022-09-09T01:35:24;100293.19;;;17.40;100.00
66164;BME280;52962;51.088;3.096;2022-09-09T01:37:55;100294.19;;;17.32;100.00
66164;BME280;52962;51.088;3.096;2022-09-09T01:40:23;100295.06;;;17.33;100.00
66164;BME280;52962;51.088;3.096;2022-09-09T01:42:52;100284.44;;;17.33;100.00
66164;BME280;52962;51.088;3.096;2022-09-09T01:45:21;100295.91;;;17.37;100.00
66164;BME280;52962;51.088;3.096;2022-09-09T01:47:50;100294.16;;;17.34;100.00
66164;BME280;52962;51.088;3.096;2022-09-09T01:50:20;100292.34;;;17.36;100.00
66164;BME280;52962;51.088;3.096;2022-09-09T01:52:50;100287.00;;;17.38;100.00
66164;BME280;52962;51.088;3.096;2022-09-09T01:55:23;100283.53;;;17.34;100.00
66164;BME280;52962;51.088;3.096;2022-09-09T01:58:06;100288.84;;;17.34;100.00
66164;BME280;52962;51.088;3.096;2022-09-09T02:00:44;100280.06;;;17.29;100.00
66164;BME280;52962;51.088;3.096;2022-09-09T02:03:20;100272.97;;;17.28;100.00
66164;BME280;52962;51.088;3.096;2022-09-09T02:05:56;100278.28;;;17.29;100.00
66164;BME280;52962;51.088;3.096;2022-09-09T02:08:35;100270.25;;;17.32;100.00
66164;BME280;52962;51.088;3.096;2022-09-09T02:11:06;100282.63;;;17.33;100.00
66164;BME280;52962;51.088;3.096;2022-09-09T02:13:37;100284.44;;;17.33;100.00
66164;BME280;52962;51.088;3.096;2022-09-09T02:16:08;100284.47;;;17.30;100.00
66164;BME280;52962;51.088;3.096;2022-09-09T02:18:42;100288.84;;;17.34;100.00
66164;BME280;52962;51.088;3.096;2022-09-09T02:21:13;100288.88;;;17.32;100.00
66164;BME280;52962;51.088;3.096;2022-09-09T02:23:42;100289.75;;;17.33;100.00
66164;BME280;52962;51.088;3.096;2022-09-09T02:26:12;100293.25;;;17.35;100.00
66164;BME280;52962;51.088;3.096;2022-09-09T02:28:48;100281.72;;;17.36;100.00
66164;BME280;52962;51.088;3.096;2022-09-09T02:31:19;100280.75;;;17.40;100.00
66164;BME280;52962;51.088;3.096;2022-09-09T02:33:51;100279.00;;;17.39;100.00
66164;BME280;52962;51.088;3.096;2022-09-09T02:36:22;100280.75;;;17.40;100.00
66164;BME280;52962;51.088;3.096;2022-09-09T02:38:51;100278.88;;;17.47;100.00
66164;BME280;52962;51.088;3.096;2022-09-09T02:41:23;100278.81;;;17.50;100.00
66164;BME280;52962;51.088;3.096;2022-09-09T02:43:53;100275.25;;;17.51;100.00
66164;BME280;52962;51.088;3.096;2022-09-09T02:46:34;100276.22;;;17.47;100.00
66164;BME280;52962;51.088;3.096;2022-09-09T02:49:09;100269.00;;;17.53;100.00
66164;BME280;52962;51.088;3.096;2022-09-09T02:51:45;100277.00;;;17.53;100.00
66164;BME280;52962;51.088;3.096;2022-09-09T02:54:22;100276.13;;;17.51;100.00
66164;BME280;52962;51.088;3.096;2022-09-09T02:56:54;100279.69;;;17.50;100.00
66164;BME280;52962;51.088;3.096;2022-09-09T02:59:24;100270.75;;;17.54;100.00
66164;BME280;52962;51.088;3.096;2022-09-09T03:01:53;100269.84;;;17.55;100.00
66164;BME280;52962;51.088;3.096;2022-09-09T03:04:21;100262.72;;;17.57;100.00
66164;BME280;52962;51.088;3.096;2022-09-09T03:06:49;100264.53;;;17.55;100.00
66164;BME280;52962;51.088;3.096;2022-09-09T03:09:16;100257.44;;;17.56;100.00
66164;BME280;52962;51.088;3.096;2022-09-09T03:11:44;100252.94;;;17.58;100.00
66164;BME280;52962;51.088;3.096;2022-09-09T03:14:12;100261.84;;;17.57;100.00
66164;BME280;52962;51.088;3.096;2022-09-09T03:16:41;100257.44;;;17.54;100.00
66164;BME280;52962;51.088;3.096;2022-09-09T03:19:10;100264.47;;;17.58;100.00
66164;BME280;52962;51.088;3.096;2022-09-09T03:21:38;100260.97;;;17.56;100.00
66164;BME280;52962;51.088;3.096;2022-09-09T03:24:06;100252.13;;;17.54;100.00
66164;BME280;52962;51.088;3.096;2022-09-09T03:26:34;100245.84;;;17.58;100.00
66164;BME280;52962;51.088;3.096;2022-09-09T03:29:01;100247.72;;;17.53;100.00
66164;BME280;52962;51.088;3.096;2022-09-09T03:31:29;100243.13;;;17.61;100.00
66164;BME280;52962;51.088;3.096;2022-09-09T03:33:59;100240.41;;;17.64;100.00
66164;BME280;52962;51.088;3.096;2022-09-09T03:36:27;100228.91;;;17.62;100.00
66164;BME280;52962;51.088;3.096;2022-09-09T03:38:55;100230.66;;;17.63;100.00
66164;BME280;52962;51.088;3.096;2022-09-09T03:41:23;100228.00;;;17.63;100.00
66164;BME280;52962;51.088;3.096;2022-09-09T03:43:53;100222.75;;;17.59;100.00
66164;BME280;52962;51.088;3.096;2022-09-09T03:46:23;100218.44;;;17.53;100.00
66164;BME280;52962;51.088;3.096;2022-09-09T03:48:51;100221.06;;;17.55;100.00
66164;BME280;52962;51.088;3.096;2022-09-09T03:51:21;100218.47;;;17.50;100.00
66164;BME280;52962;51.088;3.096;2022-09-09T03:53:49;100216.78;;;17.46;100.00
66164;BME280;52962;51.088;3.096;2022-09-09T03:56:16;100218.53;;;17.47;100.00
66164;BME280;52962;51.088;3.096;2022-09-09T03:58:44;100210.72;;;17.37;100.00
66164;BME280;52962;51.088;3.096;2022-09-09T04:01:13;100205.34;;;17.40;100.00
66164;BME280;52962;51.088;3.096;2022-09-09T04:03:43;100202.78;;;17.35;100.00
66164;BME280;52962;51.088;3.096;2022-09-09T04:06:12;100200.03;;;17.40;100.00
66164;BME280;52962;51.088;3.096;2022-09-09T04:08:42;100200.06;;;17.38;100.00
66164;BME280;52962;51.088;3.096;2022-09-09T04:11:11;100201.81;;;17.39;100.00
66164;BME280;52962;51.088;3.096;2022-09-09T04:13:40;100200.97;;;17.37;100.00
66164;BME280;52962;51.088;3.096;2022-09-09T04:16:10;100198.22;;;17.42;100.00
66164;BME280;52962;51.088;3.096;2022-09-09T04:18:39;100190.41;;;17.32;100.00
66164;BME280;52962;51.088;3.096;2022-09-09T04:21:09;100185.97;;;17.33;100.00
66164;BME280;52962;51.088;3.096;2022-09-09T04:23:38;100188.66;;;17.31;100.00
66164;BME280;52962;51.088;3.096;2022-09-09T04:26:08;100183.41;;;17.27;100.00
66164;BME280;52962;51.088;3.096;2022-09-09T04:28:36;100179.00;;;17.24;100.00
66164;BME280;52962;51.088;3.096;2022-09-09T04:31:04;100187.91;;;17.23;100.00
66164;BME280;52962;51.088;3.096;2022-09-09T04:33:33;100183.47;;;17.22;100.00
66164;BME280;52962;51.088;3.096;2022-09-09T04:36:06;100176.38;;;17.23;100.00
66164;BME280;52962;51.088;3.096;2022-09-09T04:38:34;100177.34;;;17.19;100.00
66164;BME280;52962;51.088;3.096;2022-09-09T04:41:02;100178.28;;;17.15;100.00
66164;BME280;52962;51.088;3.096;2022-09-09T04:43:32;100174.81;;;17.10;100.00
66164;BME280;52962;51.088;3.096;2022-09-09T04:45:59;100185.47;;;17.10;100.00
66164;BME280;52962;51.088;3.096;2022-09-09T04:48:27;100189.00;;;17.10;100.00
66164;BME280;52962;51.088;3.096;2022-09-09T04:50:56;100186.31;;;17.12;100.00
66164;BME280;52962;51.088;3.096;2022-09-09T04:53:24;100179.22;;;17.12;100.00
66164;BME280;52962;51.088;3.096;2022-09-09T04:55:53;100173.16;;;17.03;100.00
66164;BME280;52962;51.088;3.096;2022-09-09T04:58:20;100168.84;;;16.97;100.00
66164;BME280;52962;51.088;3.096;2022-09-09T05:00:51;100167.84;;;17.03;100.00
66164;BME280;52962;51.088;3.096;2022-09-09T05:03:19;100163.50;;;16.98;100.00
66164;BME280;52962;51.088;3.096;2022-09-09T05:05:47;100165.34;;;16.93;100.00
66164;BME280;52962;51.088;3.096;2022-09-09T05:08:15;100159.06;;;16.97;100.00
66164;BME280;52962;51.088;3.096;2022-09-09T05:10:43;100154.56;;;17.01;100.00
66164;BME280;52962;51.088;3.096;2022-09-09T05:13:11;100158.03;;;17.06;100.00
66164;BME280;52962;51.088;3.096;2022-09-09T05:15:39;100152.75;;;17.05;100.00
66164;BME280;52962;51.088;3.096;2022-09-09T05:18:11;100153.53;;;17.10;100.00
66164;BME280;52962;51.088;3.096;2022-09-09T05:20:39;100146.41;;;17.12;100.00
66164;BME280;52962;51.088;3.096;2022-09-09T05:23:08;100152.63;;;17.12;100.00
66164;BME280;52962;51.088;3.096;2022-09-09T05:25:37;100155.31;;;17.11;100.00
66164;BME280;52962;51.088;3.096;2022-09-09T05:28:05;100151.69;;;17.15;100.00
66164;BME280;52962;51.088;3.096;2022-09-09T05:30:33;100162.34;;;17.13;100.00
66164;BME280;52962;51.088;3.096;2022-09-09T05:33:01;100158.00;;;17.09;100.00
66164;BME280;52962;51.088;3.096;2022-09-09T05:35:31;100160.63;;;17.11;100.00
66164;BME280;52962;51.088;3.096;2022-09-09T05:37:59;100160.66;;;17.09;100.00
66164;BME280;52962;51.088;3.096;2022-09-09T05:40:28;100164.19;;;17.10;100.00
66164;BME280;52962;51.088;3.096;2022-09-09T05:42:59;100153.50;;;17.13;100.00
66164;BME280;52962;51.088;3.096;2022-09-09T05:45:28;100152.66;;;17.11;100.00
66164;BME280;52962;51.088;3.096;2022-09-09T05:47:56;100149.06;;;17.12;100.00
66164;BME280;52962;51.088;3.096;2022-09-09T05:50:26;100151.75;;;17.12;100.00
66164;BME280;52962;51.088;3.096;2022-09-09T05:52:58;100148.34;;;17.04;100.00
66164;BME280;52962;51.088;3.096;2022-09-09T05:55:26;100158.75;;;17.16;100.00
66164;BME280;52962;51.088;3.096;2022-09-09T05:57:54;100155.19;;;17.17;100.00
66164;BME280;52962;51.088;3.096;2022-09-09T06:00:22;100155.25;;;17.14;100.00
66164;BME280;52962;51.088;3.096;2022-09-09T06:02:51;100152.59;;;17.14;100.00
66164;BME280;52962;51.088;3.096;2022-09-09T06:05:20;100133.84;;;17.20;100.00
66164;BME280;52962;51.088;3.096;2022-09-09T06:07:52;100149.78;;;17.23;100.00
66164;BME280;52962;51.088;3.096;2022-09-09T06:10:21;100140.94;;;17.21;100.00
66164;BME280;52962;51.088;3.096;2022-09-09T06:12:52;100140.72;;;17.33;100.00
66164;BME280;52962;51.088;3.096;2022-09-09T06:15:20;100133.69;;;17.29;100.00
66164;BME280;52962;51.088;3.096;2022-09-09T06:17:54;100140.06;;;17.20;100.00
66164;BME280;52962;51.088;3.096;2022-09-09T06:20:23;100139.06;;;17.26;100.00
66164;BME280;52962;51.088;3.096;2022-09-09T06:22:51;100128.50;;;17.21;100.00
66164;BME280;52962;51.088;3.096;2022-09-09T06:25:20;100133.81;;;17.23;100.00
66164;BME280;52962;51.088;3.096;2022-09-09T06:27:48;100130.34;;;17.18;100.00
66164;BME280;52962;51.088;3.096;2022-09-09T06:30:17;100132.09;;;17.19;100.00
66164;BME280;52962;51.088;3.096;2022-09-09T06:32:45;100141.84;;;17.20;100.00
66164;BME280;52962;51.088;3.096;2022-09-09T06:35:13;100133.00;;;17.18;100.00
66164;BME280;52962;51.088;3.096;2022-09-09T06:40:14;100132.94;;;17.21;100.00
66164;BME280;52962;51.088;3.096;2022-09-09T06:42:44;100126.13;;;17.06;100.00
66164;BME280;52962;51.088;3.096;2022-09-09T06:45:11;100125.91;;;17.18;100.00
66164;BME280;52962;51.088;3.096;2022-09-09T06:47:39;100116.13;;;17.19;100.00
66164;BME280;52962;51.088;3.096;2022-09-09T06:50:08;100121.56;;;17.13;100.00
66164;BME280;52962;51.088;3.096;2022-09-09T06:52:37;100116.13;;;17.19;100.00
66164;BME280;52962;51.088;3.096;2022-09-09T06:55:06;100123.28;;;17.17;100.00
66164;BME280;52962;51.088;3.096;2022-09-09T06:57:35;100110.88;;;17.16;100.00
66164;BME280;52962;51.088;3.096;2022-09-09T07:00:06;100115.25;;;17.20;100.00
66164;BME280;52962;51.088;3.096;2022-09-09T07:02:34;100117.84;;;17.23;100.00
66164;BME280;52962;51.088;3.096;2022-09-09T07:05:06;100126.69;;;17.25;100.00
66164;BME280;52962;51.088;3.096;2022-09-09T07:07:35;100128.47;;;17.23;100.00
66164;BME280;52962;51.088;3.096;2022-09-09T07:10:04;100117.81;;;17.24;100.00
66164;BME280;52962;51.088;3.096;2022-09-09T07:12:32;100117.00;;;17.21;100.00
66164;BME280;52962;51.088;3.096;2022-09-09T07:15:00;100117.84;;;17.23;100.00
66164;BME280;52962;51.088;3.096;2022-09-09T07:17:29;100118.81;;;17.17;100.00
66164;BME280;52962;51.088;3.096;2022-09-09T07:19:57;100130.25;;;17.24;100.00
66164;BME280;52962;51.088;3.096;2022-09-09T07:22:25;100115.97;;;17.28;100.00
66164;BME280;52962;51.088;3.096;2022-09-09T07:24:52;100120.38;;;17.29;100.00
66164;BME280;52962;51.088;3.096;2022-09-09T07:27:21;100118.56;;;17.31;100.00
66164;BME280;52962;51.088;3.096;2022-09-09T07:29:49;100116.81;;;17.30;100.00
66164;BME280;52962;51.088;3.096;2022-09-09T07:32:16;100111.53;;;17.28;100.00
66164;BME280;52962;51.088;3.096;2022-09-09T07:34:47;100125.94;;;17.17;100.00
66164;BME280;52962;51.088;3.096;2022-09-09T07:37:16;100128.53;;;17.20;100.00
66164;BME280;52962;51.088;3.096;2022-09-09T07:39:44;100125.84;;;17.21;100.00
66164;BME280;52962;51.088;3.096;2022-09-09T07:42:12;100145.28;;;17.26;100.00
66164;BME280;52962;51.088;3.096;2022-09-09T07:44:41;100140.00;;;17.23;100.00
66164;BME280;52962;51.088;3.096;2022-09-09T07:47:09;100139.03;;;17.27;100.00
66164;BME280;52962;51.088;3.096;2022-09-09T07:49:37;100139.78;;;17.36;100.00
66164;BME280;52962;51.088;3.096;2022-09-09T07:52:06;100145.06;;;17.37;100.00
66164;BME280;52962;51.088;3.096;2022-09-09T07:54:34;100138.00;;;17.36;100.00
66164;BME280;52962;51.088;3.096;2022-09-09T07:57:02;100139.69;;;17.40;100.00
66164;BME280;52962;51.088;3.096;2022-09-09T07:59:30;100138.72;;;17.44;100.00
66164;BME280;52962;51.088;3.096;2022-09-09T08:01:58;100148.41;;;17.48;100.00
66164;BME280;52962;51.088;3.096;2022-09-09T08:04:26;100158.16;;;17.49;100.00
66164;BME280;52962;51.088;3.096;2022-09-09T08:06:55;100152.00;;;17.47;100.00
66164;BME280;52962;51.088;3.096;2022-09-09T08:09:26;100147.97;;;17.71;100.00
66164;BME280;52962;51.088;3.096;2022-09-09T08:11:56;100159.44;;;17.75;100.00
66164;BME280;52962;51.088;3.096;2022-09-09T08:14:24;100161.16;;;17.79;100.00
66164;BME280;52962;51.088;3.096;2022-09-09T08:16:52;100168.34;;;17.74;100.00
66164;BME280;52962;51.088;3.096;2022-09-09T08:19:21;100176.50;;;17.66;100.00
66164;BME280;52962;51.088;3.096;2022-09-09T08:21:49;100174.53;;;17.74;100.00
66164;BME280;52962;51.088;3.096;2022-09-09T08:24:17;100169.28;;;17.71;100.00
66164;BME280;52962;51.088;3.096;2022-09-09T08:26:48;100167.66;;;18.07;100.00
66164;BME280;52962;51.088;3.096;2022-09-09T08:29:16;100169.09;;;18.23;100.00
66164;BME280;52962;51.088;3.096;2022-09-09T08:31:45;100173.19;;;18.40;100.00
66164;BME280;52962;51.088;3.096;2022-09-09T08:34:14;100171.84;;;18.59;100.00
66164;BME280;52962;51.088;3.096;2022-09-09T08:36:43;100179.44;;;18.77;100.00
66164;BME280;52962;51.088;3.096;2022-09-09T08:39:13;100179.75;;;19.01;100.00
66164;BME280;52962;51.088;3.096;2022-09-09T08:42:04;100170.59;;;19.11;100.00
66164;BME280;52962;51.088;3.096;2022-09-09T08:44:45;100177.84;;;19.06;100.00
66164;BME280;52962;51.088;3.096;2022-09-09T08:47:22;100182.81;;;19.21;100.00
66164;BME280;52962;51.088;3.096;2022-09-09T08:50:07;100196.28;;;19.50;100.00
66164;BME280;52962;51.088;3.096;2022-09-09T08:52:49;100199.75;;;19.55;100.00
66164;BME280;52962;51.088;3.096;2022-09-09T08:55:28;100201.56;;;19.53;100.00
66164;BME280;52962;51.088;3.096;2022-09-09T08:58:11;100203.66;;;19.41;100.00
66164;BME280;52962;51.088;3.096;2022-09-09T09:00:49;100207.03;;;19.47;100.00
66164;BME280;52962;51.088;3.096;2022-09-09T09:03:23;100215.28;;;19.38;100.00
66164;BME280;52962;51.088;3.096;2022-09-09T09:06:02;100211.09;;;19.28;100.00
66164;BME280;52962;51.088;3.096;2022-09-09T09:08:39;100219.75;;;19.38;100.00
66164;BME280;52962;51.088;3.096;2022-09-09T09:11:11;100221.47;;;19.40;100.00
66164;BME280;52962;51.088;3.096;2022-09-09T09:13:43;100226.66;;;19.46;100.00
66164;BME280;52962;51.088;3.096;2022-09-09T09:16:19;100228.31;;;19.50;100.00
66164;BME280;52962;51.088;3.096;2022-09-09T09:18:51;100235.09;;;19.65;100.00
66164;BME280;52962;51.088;3.096;2022-09-09T09:21:26;100223.53;;;19.65;100.00
66164;BME280;52962;51.088;3.096;2022-09-09T09:23:59;100231.53;;;19.65;100.00
66164;BME280;52962;51.088;3.096;2022-09-09T09:26:31;100236.41;;;19.81;100.00
66164;BME280;52962;51.088;3.096;2022-09-09T09:29:09;100242.13;;;20.00;100.00
66164;BME280;52962;51.088;3.096;2022-09-09T09:31:38;100242.56;;;20.16;100.00
66164;BME280;52962;51.088;3.096;2022-09-09T09:34:08;100230.47;;;20.03;100.00
66164;BME280;52962;51.088;3.096;2022-09-09T09:36:40;100244.53;;;20.09;100.00
66164;BME280;52962;51.088;3.096;2022-09-09T09:39:10;100235.03;;;20.30;100.00
66164;BME280;52962;51.088;3.096;2022-09-09T09:42:08;100228.91;;;20.27;100.00
66164;BME280;52962;51.088;3.096;2022-09-09T09:44:43;100240.44;;;20.29;100.00
66164;BME280;52962;51.088;3.096;2022-09-09T09:47:13;100234.69;;;20.11;100.00
66164;BME280;52962;51.088;3.096;2022-09-09T09:49:51;100233.72;;;20.14;100.00
66164;BME280;52962;51.088;3.096;2022-09-09T09:52:22;100237.44;;;20.08;100.00
66164;BME280;52962;51.088;3.096;2022-09-09T09:54:51;100241.78;;;20.45;100.00
66164;BME280;52962;51.088;3.096;2022-09-09T09:57:24;100247.78;;;20.81;100.00
66164;BME280;52962;51.088;3.096;2022-09-09T10:00:04;100247.84;;;20.79;100.00
66164;BME280;52962;51.088;3.096;2022-09-09T10:02:37;100253.06;;;20.82;100.00
66164;BME280;52962;51.088;3.096;2022-09-09T10:05:14;100260.81;;;20.64;100.00
66164;BME280;52962;51.088;3.096;2022-09-09T10:07:42;100257.44;;;20.57;100.00
66164;BME280;52962;51.088;3.096;2022-09-09T10:10:15;100259.81;;;20.68;100.00
66164;BME280;52962;51.088;3.096;2022-09-09T10:12:55;100256.69;;;20.81;100.00
66164;BME280;52962;51.088;3.096;2022-09-09T10:15:44;100255.34;;;21.24;100.00
66164;BME280;52962;51.088;3.096;2022-09-09T10:18:25;100249.59;;;21.63;100.00
66164;BME280;52962;51.088;3.096;2022-09-09T10:21:03;100255.53;;;21.96;100.00
66164;BME280;52962;51.088;3.096;2022-09-09T10:23:50;100251.47;;;22.10;100.00
66164;BME280;52962;51.088;3.096;2022-09-09T10:26:31;100261.06;;;22.17;100.00
66164;BME280;52962;51.088;3.096;2022-09-09T10:29:18;100263.66;;;21.94;100.00
66164;BME280;52962;51.088;3.096;2022-09-09T10:32:00;100262.78;;;21.69;100.00
66164;BME280;52962;51.088;3.096;2022-09-09T10:34:43;100267.69;;;21.56;100.00
66164;BME280;52962;51.088;3.096;2022-09-09T10:37:27;100275.94;;;21.22;100.00
66164;BME280;52962;51.088;3.096;2022-09-09T10:40:03;100282.78;;;21.03;100.00
66164;BME280;52962;51.088;3.096;2022-09-09T10:42:33;100283.88;;;20.96;100.00
66164;BME280;52962;51.088;3.096;2022-09-09T10:45:10;100283.94;;;20.94;100.00
66164;BME280;52962;51.088;3.096;2022-09-09T10:48:00;100289.88;;;20.76;100.00
66164;BME280;52962;51.088;3.096;2022-09-09T10:50:45;100278.94;;;20.54;100.00
66164;BME280;52962;51.088;3.096;2022-09-09T10:53:37;100287.47;;;20.03;100.00
66164;BME280;52962;51.088;3.096;2022-09-09T10:56:10;100285.72;;;19.70;100.00
66164;BME280;52962;51.088;3.096;2022-09-09T10:58:44;100295.66;;;19.65;100.00
66164;BME280;52962;51.088;3.096;2022-09-09T11:01:20;100299.53;;;19.51;100.00
66164;BME280;52962;51.088;3.096;2022-09-09T11:03:54;100297.06;;;19.42;100.00
66164;BME280;52962;51.088;3.096;2022-09-09T11:06:28;100294.63;;;19.33;100.00
66164;BME280;52962;51.088;3.096;2022-09-09T11:08:59;100287.88;;;19.17;100.00
66164;BME280;52962;51.088;3.096;2022-09-09T11:11:32;100291.34;;;19.22;100.00
66164;BME280;52962;51.088;3.096;2022-09-09T11:14:08;100294.69;;;19.30;100.00
66164;BME280;52962;51.088;3.096;2022-09-09T11:16:40;100300.25;;;19.21;100.00
66164;BME280;52962;51.088;3.096;2022-09-09T11:19:17;100313.66;;;19.18;100.00
66164;BME280;52962;51.088;3.096;2022-09-09T11:21:49;100322.78;;;19.08;100.00
66164;BME280;52962;51.088;3.096;2022-09-09T11:24:22;100329.91;;;19.07;100.00
66164;BME280;52962;51.088;3.096;2022-09-09T11:26:54;100331.78;;;19.04;100.00
66164;BME280;52962;51.088;3.096;2022-09-09T11:29:40;100345.19;;;19.01;100.00
66164;BME280;52962;51.088;3.096;2022-09-09T11:32:28;100352.56;;;18.89;100.00
66164;BME280;52962;51.088;3.096;2022-09-09T11:35:19;100363.41;;;18.80;100.00
66164;BME280;52962;51.088;3.096;2022-09-09T11:38:01;100355.56;;;18.73;100.00
66164;BME280;52962;51.088;3.096;2022-09-09T11:40:33;100367.28;;;18.67;100.00
66164;BME280;52962;51.088;3.096;2022-09-09T11:43:03;100358.03;;;18.83;100.00
66164;BME280;52962;51.088;3.096;2022-09-09T11:45:34;100355.19;;;18.91;100.00
66164;BME280;52962;51.088;3.096;2022-09-09T11:48:05;100355.81;;;19.04;100.00
66164;BME280;52962;51.088;3.096;2022-09-09T11:50:36;100353.03;;;19.08;100.00
66164;BME280;52962;51.088;3.096;2022-09-09T11:53:20;100359.19;;;19.12;100.00
66164;BME280;52962;51.088;3.096;2022-09-09T11:56:05;100353.69;;;19.18;100.00
66164;BME280;52962;51.088;3.096;2022-09-09T11:58:41;100352.75;;;19.20;100.00
66164;BME280;52962;51.088;3.096;2022-09-09T12:01:14;100350.13;;;19.19;100.00
66164;BME280;52962;51.088;3.096;2022-09-09T12:03:45;100354.47;;;19.23;100.00
66164;BME280;52962;51.088;3.096;2022-09-09T12:06:19;100338.75;;;19.11;100.00
66164;BME280;52962;51.088;3.096;2022-09-09T12:08:56;100357.50;;;19.08;100.00
66164;BME280;52962;51.088;3.096;2022-09-09T12:11:26;100355.72;;;19.07;100.00
66164;BME280;52962;51.088;3.096;2022-09-09T12:13:56;100352.00;;;19.14;100.00
66164;BME280;52962;51.088;3.096;2022-09-09T12:16:33;100360.06;;;19.12;100.00
66164;BME280;52962;51.088;3.096;2022-09-09T12:19:07;100364.28;;;19.22;100.00
66164;BME280;52962;51.088;3.096;2022-09-09T12:21:48;100362.59;;;19.18;100.00
66164;BME280;52962;51.088;3.096;2022-09-09T12:24:25;100358.16;;;19.17;100.00
66164;BME280;52962;51.088;3.096;2022-09-09T12:26:58;100376.72;;;19.23;100.00
66164;BME280;52962;51.088;3.096;2022-09-09T12:29:32;100373.94;;;19.28;100.00
66164;BME280;52962;51.088;3.096;2022-09-09T12:32:07;100380.81;;;19.38;100.00
66164;BME280;52962;51.088;3.096;2022-09-09T12:34:39;100378.75;;;19.52;100.00
66164;BME280;52962;51.088;3.096;2022-09-09T12:37:16;100379.59;;;19.54;100.00
66164;BME280;52962;51.088;3.096;2022-09-09T12:39:49;100377.72;;;19.58;100.00
66164;BME280;52962;51.088;3.096;2022-09-09T12:42:21;100379.56;;;19.56;100.00
66164;BME280;52962;51.088;3.096;2022-09-09T12:44:53;100379.63;;;19.53;100.00
66164;BME280;52962;51.088;3.096;2022-09-09T12:47:28;100385.97;;;19.47;100.00
66164;BME280;52962;51.088;3.096;2022-09-09T12:49:58;100400.53;;;19.33;100.00
66164;BME280;52962;51.088;3.096;2022-09-09T12:52:30;100383.84;;;19.23;100.00
66164;BME280;52962;51.088;3.096;2022-09-09T12:55:02;100385.59;;;19.24;100.00
66164;BME280;52962;51.088;3.096;2022-09-09T12:57:34;100394.25;;;19.35;100.00
66164;BME280;52962;51.088;3.096;2022-09-09T13:00:06;100394.19;;;19.38;100.00
66164;BME280;52962;51.088;3.096;2022-09-09T13:02:46;100392.44;;;19.36;100.00
66164;BME280;52962;51.088;3.096;2022-09-09T13:05:16;100398.84;;;19.28;100.00
66164;BME280;52962;51.088;3.096;2022-09-09T13:07:46;100397.16;;;19.24;100.00
66164;BME280;52962;51.088;3.096;2022-09-09T13:10:21;100397.25;;;19.20;100.00